This is the latest recevied weather packets stored in our database for station/object PU2ONU-13. If no packets are shown the sender has not sent any weather packets the latest 10 day(s).
| Time | Temp. | Humidity | Pressure | Rain* | Wind** | Luminosity | Snow |
|---|---|---|---|---|---|---|---|
| 1777695613 | 29.44° C | 45% | 1018 hPa | - | - | - | - |
| 1777694412 | 29.44° C | 45% | 1018 hPa | - | - | - | - |
| 1777693213 | 29.44° C | 45% | 1017 hPa | - | - | - | - |
| 1777692012 | 30° C | 44% | 1018 hPa | - | - | - | - |
| 1777690813 | 30° C | 45% | 1018 hPa | - | - | - | - |
| 1777689613 | 30.56° C | 43% | 1018 hPa | - | - | - | - |
| 1777674014 | 33.89° C | 40% | 1018 hPa | - | - | - | - |
| 1777670414 | 35.56° C | 33% | 1017 hPa | - | - | - | - |
| 1777663213 | 31.67° C | 41% | 1016 hPa | - | - | - | - |
| 1777660813 | 31.67° C | 39% | 1016 hPa | - | - | - | - |
| 1777651212 | 30.56° C | 41% | 1018 hPa | - | - | - | - |
| 1777650013 | 30° C | 42% | 1018 hPa | - | - | - | - |
| 1777648813 | 30° C | 42% | 1019 hPa | - | - | - | - |
| 1777646412 | 30° C | 42% | 1019 hPa | - | - | - | - |
| 1777645213 | 29.44° C | 43% | 1020 hPa | - | - | - | - |
| 1777642812 | 28.89° C | 44% | 1019 hPa | - | - | - | - |
| 1777641614 | 29.44° C | 47% | 1020 hPa | - | - | - | - |
| 1777635612 | 31.11° C | 41% | 1019 hPa | - | - | - | - |
| 1777634413 | 30.56° C | 43% | 1020 hPa | - | - | - | - |
| 1777633213 | 29.44° C | 44% | 1019 hPa | - | - | - | - |
| 1777632013 | 28.89° C | 46% | 1019 hPa | - | - | - | - |
| 1777630813 | 28.89° C | 45% | 1019 hPa | - | - | - | - |
| 1777629614 | 28.89° C | 46% | 1018 hPa | - | - | - | - |
| 1777628413 | 27.78° C | 49% | 1018 hPa | - | - | - | - |
| 1777627212 | 28.33° C | 47% | 1018 hPa | - | - | - | - |
* Rain since midnight (hover to see other rain measurements)
** Current wind speed in m/s (hover to see current wind gust speed)